George T. Moran — WDH5386 — position and weather

sailwx.info

Track history (hours):
 
Tides and Currents Weather Stations Pressure Air Temp Water Temp Dewpoint Dewpoint Depression Visibility Wind Speed Wind Dir Waves Ship Positions

George T. Moran

Owner: Moran Towing Corporation, New Canaan, CT. More information available from US FCC via Universal Licensing System and Coast Guard Vessel Documentation Center.

Last reported at 2018-May-24 21:31 UTC. Time now 2018-May-24 21:28 UTC.
Position N 25°47' W 080°11'.

Length 28 m; draft 5 m.

Type: Tug. MMSI: 367627450.

Date/timePositionNaut miles runAvg speedWind from/ knotsBaromVisibWave heightAir tempDewpointWater temp
2018-May-24 21:31N 25°47' W 080°11'0 0.0
2018-May-24 21:00N 25°47' W 080°11'0 0.0
2018-May-24 20:31N 25°47' W 080°11'0 0.0
2018-May-24 20:01N 25°47' W 080°11'0 0.0
2018-May-24 19:30N 25°47' W 080°11'0 0.0
2018-May-24 19:00N 25°47' W 080°11'0 0.0
2018-May-24 18:31N 25°47' W 080°11'1 2.5
2018-May-24 18:00N 25°46' W 080°10'1 1.6
2018-May-24 17:31N 25°46' W 080°09'0 0.0
2018-May-24 17:01N 25°46' W 080°09'0 0.0
2018-May-24 16:30N 25°46' W 080°09'1 1.2
2018-May-24 16:01N 25°46' W 080°09'0 0.6
2018-May-24 15:30N 25°46' W 080°10'0 0.1
2018-May-24 15:01N 25°46' W 080°10'2 4.6
2018-May-24 14:31N 25°46' W 080°07'0 0.5
2018-May-24 14:01N 25°45' W 080°07'2 3.5
2018-May-24 13:30N 25°46' W 080°09'1 0.2
2018-May-24 09:00N 25°46' W 080°10'0 0.0
2018-May-24 08:30N 25°46' W 080°10'0 0.0
2018-May-24 08:00N 25°46' W 080°10'0 0.0
2018-May-24 07:30N 25°46' W 080°10'0 0.0
2018-May-24 07:00N 25°46' W 080°10'0 0.0
2018-May-24 06:31N 25°46' W 080°10'0 0.0
2018-May-24 06:01N 25°46' W 080°10'0 0.0
2018-May-24 05:31N 25°46' W 080°10'0 0.0
2018-May-24 05:01N 25°46' W 080°10'0 0.0
2018-May-24 04:31N 25°46' W 080°10'1 1.5
2018-May-24 04:00N 25°46' W 080°09'0 0.7
2018-May-24 03:31N 25°46' W 080°09'0 0.1
2018-May-24 03:00N 25°46' W 080°09'0 0.3
2018-May-24 02:30N 25°46' W 080°09'1 2.0
2018-May-24 02:00N 25°46' W 080°10'0 0.0
2018-May-24 01:30N 25°46' W 080°10'0 0.0
2018-May-24 01:00N 25°46' W 080°10'0 0.0
2018-May-24 00:30N 25°46' W 080°10'0 0.0
2018-May-24 00:00N 25°46' W 080°10'0 0.0
2018-May-23 23:30N 25°46' W 080°10'0 0.0
2018-May-23 23:01N 25°46' W 080°10'0 0.0
2018-May-23 22:30N 25°46' W 080°10'1 1.6
2018-May-23 22:01N 25°46' W 080°09'0 0.2
2018-May-23 21:30N 25°46' W 080°09'2 4.0
2018-May-23 21:01N 25°45' W 080°07'1 2.6
2018-May-23 20:30N 25°46' W 080°08'0 0.8
2018-May-23 20:00N 25°46' W 080°09'0 0.9
2018-May-23 19:31N 25°46' W 080°09'0 0.1
2018-May-23 19:00N 25°46' W 080°09'0 0.6
2018-May-23 18:30N 25°46' W 080°10'0 0.0
2018-May-23 18:01N 25°46' W 080°10'0 0.0
2018-May-23 17:30N 25°46' W 080°10'0 0.0
2018-May-23 17:00N 25°46' W 080°10'0 0.0
2018-May-23 16:31N 25°46' W 080°10'0 0.0
2018-May-23 16:00N 25°46' W 080°10'1 1.1
2018-May-23 15:31N 25°46' W 080°10'0 0.9
2018-May-23 15:01N 25°46' W 080°10'1 1.2
2018-May-23 14:30N 25°46' W 080°09'0 0.0
2018-May-23 14:01N 25°46' W 080°09'0 0.0
2018-May-23 13:30N 25°46' W 080°09'1 1.7
2018-May-23 13:00N 25°46' W 080°10'1 2.2
2018-May-23 12:30N 25°46' W 080°09'0 0.5
2018-May-23 12:00N 25°46' W 080°09'2 4.0
2018-May-23 11:30N 25°45' W 080°07'1 1.3
2018-May-23 11:00N 25°46' W 080°06'3 3.6
2018-May-23 10:18N 25°46' W 080°09'0 1.3
2018-May-23 09:59N 25°46' W 080°09'3 5.7
2018-May-23 09:31N 25°46' W 080°06'1 2.4
2018-May-23 08:59N 25°45' W 080°07'3 5.8
2018-May-23 08:30N 25°46' W 080°10'0 0.2
2018-May-23 08:00N 25°46' W 080°10'0 0.0
2018-May-23 07:31N 25°46' W 080°10'0 0.0
2018-May-23 07:01N 25°46' W 080°10'0 0.0
2018-May-23 06:30N 25°46' W 080°10'0 0.0
2018-May-23 06:01N 25°46' W 080°10'0 0.0
2018-May-23 05:30N 25°46' W 080°10'0 0.0
2018-May-23 05:01N 25°46' W 080°10'0 0.0
2018-May-23 04:31N 25°46' W 080°10'0 0.0
2018-May-23 04:00N 25°46' W 080°10'0 0.0
2018-May-23 03:30N 25°46' W 080°10'0 0.0
2018-May-23 03:00N 25°46' W 080°10'0 0.0
2018-May-23 02:30N 25°46' W 080°10'0 0.0
2018-May-23 02:00N 25°46' W 080°10'0 0.0
2018-May-23 01:30N 25°46' W 080°10'0 0.0
2018-May-23 01:01N 25°46' W 080°10'0 0.5
2018-May-23 00:31N 25°46' W 080°10'1 1.4
2018-May-23 00:01N 25°46' W 080°09'0 0.9
2018-May-22 23:30N 25°46' W 080°09'1 3.0
2018-May-22 23:01N 25°47' W 080°11'0 0.0
2018-May-22 22:29N 25°47' W 080°11'0 0.0
2018-May-22 22:01N 25°47' W 080°11'0 0.0
2018-May-22 21:30N 25°47' W 080°11'0 0.0
2018-May-22 21:01N 25°47' W 080°11'0 0.0
2018-May-22 20:30N 25°47' W 080°11'0 0.0
2018-May-22 20:01N 25°47' W 080°11'0 0.0
2018-May-22 19:30N 25°47' W 080°11'0 0.0
2018-May-22 19:01N 25°47' W 080°11'0 0.0
2018-May-22 18:30N 25°47' W 080°11'0 0.0
2018-May-22 18:01N 25°47' W 080°11'0 0.0
2018-May-22 17:30N 25°47' W 080°11'0 0.0
2018-May-22 17:00N 25°47' W 080°11'0 0.0
2018-May-22 16:31N 25°47' W 080°11'0 0.0
2018-May-22 16:00N 25°47' W 080°11'0 0.0
2018-May-22 15:30N 25°47' W 080°11'0 0.0
2018-May-22 15:01N 25°47' W 080°11'0 0.0
2018-May-22 14:30N 25°47' W 080°11'0 0.0
2018-May-22 14:01N 25°47' W 080°11'1 2.2
2018-May-22 13:30N 25°46' W 080°10'0 0.1
2018-May-22 13:01N 25°46' W 080°10'3 5.3
2018-May-22 12:30N 25°45' W 080°07'1 1.9
2018-May-22 12:00N 25°46' W 080°08'1 1.0
2018-May-22 11:17N 25°46' W 080°09'0 0.0
2018-May-22 11:00N 25°46' W 080°09'0 0.7
2018-May-22 10:30N 25°46' W 080°09'0 0.5
2018-May-22 10:01N 25°46' W 080°09'1 2.3
2018-May-22 09:30N 25°46' W 080°08'0 0.9
2018-May-22 09:00N 25°45' W 080°07'3 5.6
2018-May-22 08:30N 25°47' W 080°10'1 1.5
2018-May-22 08:00N 25°47' W 080°11'0 0.0
2018-May-22 07:30N 25°47' W 080°11'0 0.0
2018-May-22 07:00N 25°47' W 080°11'0 0.0
2018-May-22 06:30N 25°47' W 080°11'0 0.0
2018-May-22 05:59N 25°47' W 080°11'0 0.0
2018-May-22 05:31N 25°47' W 080°11'0 0.0
2018-May-22 05:01N 25°47' W 080°11'0 0.0
2018-May-22 04:28N 25°47' W 080°11'0 0.0
2018-May-22 04:00N 25°47' W 080°11'0 0.0
2018-May-22 03:31N 25°47' W 080°11'0 0.0
2018-May-22 03:00N 25°47' W 080°11'0 0.0
2018-May-22 02:30N 25°47' W 080°11'0 0.0
2018-May-22 02:00N 25°47' W 080°11'0 0.0
2018-May-22 01:31N 25°47' W 080°11'0 0.0
2018-May-22 01:00N 25°47' W 080°11'0 0.0
2018-May-22 00:30N 25°47' W 080°11'0 0.0
2018-May-22 00:01N 25°47' W 080°11'0 0.0
2018-May-21 23:31N 25°47' W 080°11'0 0.0
2018-May-21 23:00N 25°47' W 080°11'0 0.0
2018-May-21 22:30N 25°47' W 080°11'0 0.0
2018-May-21 22:00N 25°47' W 080°11'0 0.0
2018-May-21 21:31N 25°47' W 080°11'0 0.0
2018-May-21 21:00N 25°47' W 080°11'0 0.0
2018-May-21 20:31N 25°47' W 080°11'0 0.0
2018-May-21 20:00N 25°47' W 080°11'0 0.0
2018-May-21 19:30N 25°47' W 080°11'0 0.0
2018-May-21 19:01N 25°47' W 080°11'0 0.0
2018-May-21 18:30N 25°47' W 080°11'0 0.0
2018-May-21 18:00N 25°47' W 080°11'0 0.0
2018-May-21 17:31N 25°47' W 080°11'0 0.0
2018-May-21 17:00N 25°47' W 080°11'0 0.0
2018-May-21 16:30N 25°47' W 080°11'0 0.0
2018-May-21 16:00N 25°47' W 080°11'0 0.0
2018-May-21 15:30N 25°47' W 080°11'0 0.0
2018-May-21 15:01N 25°47' W 080°11'0 0.0
2018-May-21 14:31N 25°47' W 080°11'0 0.0
2018-May-21 14:01N 25°47' W 080°11'0 0.0
2018-May-21 13:30N 25°47' W 080°11'0 0.0
2018-May-21 13:00N 25°47' W 080°11'0 0.0
2018-May-21 12:30N 25°47' W 080°11'0 0.0
2018-May-21 11:59N 25°47' W 080°11'0 0.0
2018-May-21 11:30N 25°47' W 080°11'0 0.0
2018-May-21 11:00N 25°47' W 080°11'0 0.0
2018-May-21 10:31N 25°47' W 080°11'0 0.0
2018-May-21 10:00N 25°47' W 080°11'0 0.0
2018-May-21 09:30N 25°47' W 080°11'0 0.0
2018-May-21 09:01N 25°47' W 080°11'0 0.0
2018-May-21 08:30N 25°47' W 080°11'0 0.0
2018-May-21 08:01N 25°47' W 080°11'0 0.0
2018-May-21 07:30N 25°47' W 080°11'0 0.0
2018-May-21 07:00N 25°47' W 080°11'0 0.0
2018-May-21 06:31N 25°47' W 080°11'0 0.0
2018-May-21 06:01N 25°47' W 080°11'0 0.0
2018-May-21 05:30N 25°47' W 080°11'0 0.0
2018-May-21 05:01N 25°47' W 080°11'0 0.0
2018-May-21 04:30N 25°47' W 080°11'0 0.0
2018-May-21 04:01N 25°47' W 080°11'0 0.0
2018-May-21 03:30N 25°47' W 080°11'0 0.0
2018-May-21 03:00N 25°47' W 080°11'0 0.0
2018-May-21 02:31N 25°47' W 080°11'0 0.0
2018-May-21 02:01N 25°47' W 080°11'0 0.0
2018-May-21 01:31N 25°47' W 080°11'0 0.0
2018-May-21 01:01N 25°47' W 080°11'0 0.0
2018-May-21 00:31N 25°47' W 080°11'0 0.0
2018-May-21 00:00N 25°47' W 080°11'0 0.0
2018-May-20 23:31N 25°47' W 080°11'0 0.0
2018-May-20 23:00N 25°47' W 080°11'0 0.0
2018-May-20 22:30N 25°47' W 080°11'0 0.0
2018-May-20 22:00N 25°47' W 080°11'0 0.0
2018-May-20 21:31N 25°47' W 080°11'0 0.0
2018-May-20 21:00N 25°47' W 080°11'0 0.0
2018-May-20 20:30N 25°47' W 080°11'0 0.0
2018-May-20 20:01N 25°47' W 080°11'0 0.0
2018-May-20 19:31N 25°47' W 080°11'0 0.0
2018-May-20 19:00N 25°47' W 080°11'0 0.0
2018-May-20 18:30N 25°47' W 080°11'0 0.0
2018-May-20 18:01N 25°47' W 080°11'0 0.0
2018-May-20 17:31N 25°47' W 080°11'0 0.0
2018-May-20 17:00N 25°47' W 080°11'0 0.0
2018-May-20 16:30N 25°47' W 080°11'0 0.0
2018-May-20 16:00N 25°47' W 080°11'0 0.0
2018-May-20 15:30N 25°47' W 080°11'0 0.0
2018-May-20 15:01N 25°47' W 080°11'0 0.0
2018-May-20 14:30N 25°47' W 080°11'0 0.0
2018-May-20 14:01N 25°47' W 080°11'0 0.0
2018-May-20 13:31N 25°47' W 080°11'0 0.0
2018-May-20 13:00N 25°47' W 080°11'2 4.9
2018-May-20 12:31N 25°46' W 080°08'1 1.1
2018-May-20 12:00N 25°46' W 080°09'0 0.0
2018-May-20 11:29N 25°46' W 080°09'1 2.0
2018-May-20 11:01N 25°47' W 080°10'1 2.0
2018-May-20 10:30N 25°47' W 080°11'0 0.0
2018-May-20 10:00N 25°47' W 080°11'0 0.0
2018-May-20 09:31N 25°47' W 080°11'0 0.0
2018-May-20 09:01N 25°47' W 080°11'0 0.0
2018-May-20 08:30N 25°47' W 080°11'0 0.0
2018-May-20 08:00N 25°47' W 080°11'0 0.0
2018-May-20 07:31N 25°47' W 080°11'0 0.0
2018-May-20 07:01N 25°47' W 080°11'0 0.0
2018-May-20 06:30N 25°47' W 080°11'0 0.0
2018-May-20 06:00N 25°47' W 080°11'0 0.0
2018-May-20 05:31N 25°47' W 080°11'0 0.0
2018-May-20 05:01N 25°47' W 080°11'0 0.0
2018-May-20 04:30N 25°47' W 080°11'0 0.0
2018-May-20 04:01N 25°47' W 080°11'0 0.0
2018-May-20 03:31N 25°47' W 080°11'0 0.0
2018-May-20 03:01N 25°47' W 080°11'0 0.0
2018-May-20 02:30N 25°47' W 080°11'0 0.0
2018-May-20 02:00N 25°47' W 080°11'0 0.0
2018-May-20 01:30N 25°47' W 080°11'0 0.0
2018-May-20 01:00N 25°47' W 080°11'0 0.0
2018-May-20 00:30N 25°47' W 080°11'0 0.0
2018-May-20 00:00N 25°47' W 080°11'0 0.0
2018-May-19 23:30N 25°47' W 080°11'0 0.0
2018-May-19 23:00N 25°47' W 080°11'0 0.0
2018-May-19 22:30N 25°47' W 080°11'0 0.0
2018-May-19 22:00N 25°47' W 080°11'0 0.0
2018-May-19 21:30N 25°47' W 080°11'0 0.0
2018-May-19 21:00N 25°47' W 080°11'0 0.0
2018-May-19 20:31N 25°47' W 080°11'0 0.0
2018-May-19 20:01N 25°47' W 080°11'0 0.0
2018-May-19 19:30N 25°47' W 080°11'0 0.0
2018-May-19 19:01N 25°47' W 080°11'0 0.0
2018-May-19 18:31N 25°47' W 080°11'0 0.0
2018-May-19 18:01N 25°47' W 080°11'0 0.0
2018-May-19 17:31N 25°47' W 080°11'0 0.0
2018-May-19 17:01N 25°47' W 080°11'0 0.0
2018-May-19 16:31N 25°47' W 080°11'0 0.0
2018-May-19 16:00N 25°47' W 080°11'0 0.0
2018-May-19 15:31N 25°47' W 080°11'0 0.0
2018-May-19 15:01N 25°47' W 080°11'0 0.0
2018-May-19 14:31N 25°47' W 080°11'1 1.5
2018-May-19 14:00N 25°47' W 080°10'1 2.3
2018-May-19 13:30N 25°46' W 080°09'0 0.0
2018-May-19 13:00N 25°46' W 080°09'0 0.0
2018-May-19 12:30N 25°46' W 080°09'0 1.0
2018-May-19 12:00N 25°46' W 080°10'0 0.5
2018-May-19 11:31N 25°46' W 080°10'0 0.5
2018-May-19 11:00N 25°46' W 080°10'1 1.8
2018-May-19 10:31N 25°46' W 080°09'0 0.8
2018-May-19 10:01N 25°46' W 080°09'1 1.9
2018-May-19 09:31N 25°46' W 080°10'0 0.0
2018-May-19 09:00N 25°46' W 080°10'0 0.0
2018-May-19 08:30N 25°46' W 080°10'0 0.0
2018-May-19 08:01N 25°46' W 080°10'0 0.0
2018-May-19 07:31N 25°46' W 080°10'0 0.0
2018-May-19 07:01N 25°46' W 080°10'0 0.0
2018-May-19 06:30N 25°46' W 080°10'0 0.0
2018-May-19 06:00N 25°46' W 080°10'0 0.0
2018-May-19 05:30N 25°46' W 080°10'0 0.0
2018-May-19 05:01N 25°46' W 080°10'0 0.0
2018-May-19 04:30N 25°46' W 080°10'0 0.0
2018-May-19 04:01N 25°46' W 080°10'0 0.0
2018-May-19 03:31N 25°46' W 080°10'0 0.0
2018-May-19 03:01N 25°46' W 080°10'0 0.0
2018-May-19 02:31N 25°46' W 080°10'0 0.0
2018-May-19 02:00N 25°46' W 080°10'0 0.0
2018-May-19 01:31N 25°46' W 080°10'0 0.0
2018-May-19 01:00N 25°46' W 080°10'0 0.0
2018-May-19 00:31N 25°46' W 080°10'1 1.6
2018-May-19 00:01N 25°46' W 080°09'0 0.6
2018-May-18 23:30N 25°46' W 080°09'2 3.0
2018-May-18 23:01N 25°46' W 080°07'1 2.6
2018-May-18 22:30N 25°46' W 080°09'0 0.4
2018-May-18 22:00N 25°46' W 080°09'0 0.0
2018-May-18 21:30N 25°46' W 080°09'0 0.0
2018-May-18 21:00N 25°46' W 080°09'0 0.5
2018-May-18 20:30N 25°46' W 080°09'0 0.0
2018-May-18 20:00N 25°46' W 080°09'2 4.6
2018-May-18 19:30N 25°47' W 080°11'0 0.0
2018-May-18 19:01N 25°47' W 080°11'0 0.0
2018-May-18 18:30N 25°47' W 080°11'0 0.0
2018-May-18 18:00N 25°47' W 080°11'0 0.0
2018-May-18 17:31N 25°47' W 080°11'0 0.0
2018-May-18 17:00N 25°47' W 080°11'0 0.0
2018-May-18 16:31N 25°47' W 080°11'0 0.0
2018-May-18 16:01N 25°47' W 080°11'0 0.0
2018-May-18 15:31N 25°47' W 080°11'0 0.0
2018-May-18 15:01N 25°47' W 080°11'0 0.0
2018-May-18 14:30N 25°47' W 080°11'0 0.0
2018-May-18 14:01N 25°47' W 080°11'0 0.0
2018-May-18 13:31N 25°47' W 080°11'0 0.0
2018-May-18 13:01N 25°47' W 080°11'0 0.0
2018-May-18 12:31N 25°47' W 080°11'0 0.0
2018-May-18 12:01N 25°47' W 080°11'0 0.0
2018-May-18 11:31N 25°47' W 080°11'0 0.0
2018-May-18 11:00N 25°47' W 080°11'0 0.0
2018-May-18 10:31N 25°47' W 080°11'1 1.5
2018-May-18 10:00N 25°47' W 080°10'1 1.9
2018-May-18 09:30N 25°46' W 080°09'1 1.1
2018-May-18 09:00N 25°46' W 080°09'2 3.7
2018-May-18 08:30N 25°45' W 080°07'1 1.2
2018-May-18 08:00N 25°46' W 080°07'1 2.5
2018-May-18 07:30N 25°46' W 080°09'0 0.0
2018-May-18 07:01N 25°46' W 080°09'0 0.0
2018-May-18 06:30N 25°46' W 080°09'1 2.3
2018-May-18 06:00N 25°46' W 080°10'0 0.8
2018-May-18 05:31N 25°46' W 080°10'0 0.1
2018-May-18 05:00N 25°46' W 080°10'1 2.7
2018-May-18 04:30N 25°47' W 080°11'0 0.3
2018-May-18 04:00N 25°47' W 080°11'0 0.0
2018-May-18 03:29N 25°47' W 080°11'0 0.0
2018-May-18 03:00N 25°47' W 080°11'0 0.0
2018-May-18 02:30N 25°47' W 080°11'0 0.0
2018-May-18 02:01N 25°47' W 080°11'0 0.0
2018-May-18 01:30N 25°47' W 080°11'0 0.0
2018-May-18 01:00N 25°47' W 080°11'0 0.0
2018-May-18 00:30N 25°47' W 080°11'0 0.0
2018-May-18 00:01N 25°47' W 080°11'0 0.0
2018-May-17 23:31N 25°47' W 080°11'0 0.0
2018-May-17 23:00N 25°47' W 080°11'0 0.0
2018-May-17 22:30N 25°47' W 080°11'0 0.0
2018-May-17 22:00N 25°47' W 080°11'0 0.0
2018-May-17 21:31N 25°47' W 080°11'0 0.0
2018-May-17 21:01N 25°47' W 080°11'0 0.0
2018-May-17 20:31N 25°47' W 080°11'0 0.0
2018-May-17 20:01N 25°47' W 080°11'0 0.0
2018-May-17 19:30N 25°47' W 080°11'0 0.0
2018-May-17 19:00N 25°47' W 080°11'0 0.0
2018-May-17 18:31N 25°47' W 080°11'0 0.0
2018-May-17 18:00N 25°47' W 080°11'1 3.0
2018-May-17 17:31N 25°46' W 080°09'0 0.0
2018-May-17 17:01N 25°46' W 080°09'2 3.2
2018-May-17 16:30N 25°46' W 080°08'1 1.6
2018-May-17 16:00N 25°45' W 080°07'2 3.5
2018-May-17 15:30N 25°46' W 080°09'0 0.0
2018-May-17 14:59N 25°46' W 080°09'0 0.0
2018-May-17 14:30N 25°46' W 080°09'0 0.0
2018-May-17 14:00N 25°46' W 080°09'0 0.0
2018-May-17 13:30N 25°46' W 080°09'0 0.0
2018-May-17 13:00N 25°46' W 080°09'1 3.0
2018-May-17 12:31N 25°45' W 080°07'2 3.5
2018-May-17 12:00N 25°46' W 080°09'0 0.2
2018-May-17 11:30N 25°46' W 080°09'0 0.7
2018-May-17 11:01N 25°46' W 080°10'0 0.1
2018-May-17 10:31N 25°46' W 080°10'1 2.9
2018-May-17 10:01N 25°47' W 080°11'0 0.0
2018-May-17 09:30N 25°47' W 080°11'0 0.0
2018-May-17 09:00N 25°47' W 080°11'0 0.0
2018-May-17 08:30N 25°47' W 080°11'0 0.0
2018-May-17 08:00N 25°47' W 080°11'0 0.0
2018-May-17 07:31N 25°47' W 080°11'0 0.0
2018-May-17 07:00N 25°47' W 080°11'0 0.0
2018-May-17 06:30N 25°47' W 080°11'0 0.0
2018-May-17 06:01N 25°47' W 080°11'0 0.0
2018-May-17 05:31N 25°47' W 080°11'0 0.0
2018-May-17 05:00N 25°47' W 080°11'0 0.0
2018-May-17 04:31N 25°47' W 080°11'0 0.0
2018-May-17 04:00N 25°47' W 080°11'0 0.0
2018-May-17 03:30N 25°47' W 080°11'0 0.0
2018-May-17 03:01N 25°47' W 080°11'0 0.0
2018-May-17 02:30N 25°47' W 080°11'0 0.0
2018-May-17 02:00N 25°47' W 080°11'0 0.0
2018-May-17 01:30N 25°47' W 080°11'0 0.0
2018-May-17 01:00N 25°47' W 080°11'0 0.0
2018-May-17 00:31N 25°47' W 080°11'0 0.0
2018-May-17 00:00N 25°47' W 080°11'0 0.0
2018-May-16 23:30N 25°47' W 080°11'0 0.0
2018-May-16 23:00N 25°47' W 080°11'0 0.0
2018-May-16 22:31N 25°47' W 080°11'0 0.0
2018-May-16 22:01N 25°47' W 080°11'2 4.1
2018-May-16 21:30N 25°46' W 080°09'0 0.3
2018-May-16 21:01N 25°46' W 080°09'1 2.2
2018-May-16 20:31N 25°46' W 080°08'1 1.8
2018-May-16 20:01N 25°45' W 080°07'2 4.2
2018-May-16 19:31N 25°46' W 080°09'0 0.0
2018-May-16 19:01N 25°46' W 080°09'0 0.0
2018-May-16 18:31N 25°46' W 080°09'0 0.0
2018-May-16 18:01N 25°46' W 080°09'0 0.0
2018-May-16 17:31N 25°46' W 080°09'0 0.0
2018-May-16 17:00N 25°46' W 080°09'0 0.5
2018-May-16 16:31N 25°46' W 080°09'0 0.5
2018-May-16 16:00N 25°46' W 080°10'0 0.1
2018-May-16 15:31N 25°46' W 080°10'2 4.8
2018-May-16 15:01N 25°45' W 080°07'0 0.4
2018-May-16 14:31N 25°45' W 080°07'1 1.5
2018-May-16 14:00N 25°46' W 080°08'1 2.1
2018-May-16 13:28N 25°46' W 080°09'1 2.9
2018-May-16 13:01N 25°46' W 080°10'0 1.0
2018-May-16 12:31N 25°46' W 080°10'1 1.8
2018-May-16 12:00N 25°46' W 080°09'1 2.9
2018-May-16 11:31N 25°47' W 080°10'1 1.2
2018-May-16 11:00N 25°47' W 080°11'0 0.0
2018-May-16 10:30N 25°47' W 080°11'0 0.0
2018-May-16 10:00N 25°47' W 080°11'0 0.0
2018-May-16 09:30N 25°47' W 080°11'0 0.0
2018-May-16 09:00N 25°47' W 080°11'0 0.0
2018-May-16 08:31N 25°47' W 080°11'0 0.0
2018-May-16 08:00N 25°47' W 080°11'0 0.0
2018-May-16 07:31N 25°47' W 080°11'0 0.0
2018-May-16 07:01N 25°47' W 080°11'0 0.0
2018-May-16 06:30N 25°47' W 080°11'0 0.0
2018-May-16 06:01N 25°47' W 080°11'0 0.0
2018-May-16 05:31N 25°47' W 080°11'0 0.0
2018-May-16 05:00N 25°47' W 080°11'0 0.0
2018-May-16 04:31N 25°47' W 080°11'0 0.0
2018-May-16 04:00N 25°47' W 080°11'0 0.0
2018-May-16 03:31N 25°47' W 080°11'0 0.0
2018-May-16 03:01N 25°47' W 080°11'0 0.0
2018-May-16 02:30N 25°47' W 080°11'0 0.0
2018-May-16 02:01N 25°47' W 080°11'0 0.0
2018-May-16 01:31N 25°47' W 080°11'0 0.0
2018-May-16 01:01N 25°47' W 080°11'0 0.0
2018-May-16 00:30N 25°47' W 080°11'0 0.0
2018-May-16 00:01N 25°47' W 080°11'0 0.0
2018-May-15 23:30N 25°47' W 080°11'0 0.0
2018-May-15 23:00N 25°47' W 080°11'0 0.0
2018-May-15 22:30N 25°47' W 080°11'0 0.0
2018-May-15 22:00N 25°47' W 080°11'0 0.0
2018-May-15 21:30N 25°47' W 080°11'0 0.0
2018-May-15 21:00N 25°47' W 080°11'0 0.0
2018-May-15 20:30N 25°47' W 080°11'0 0.0
2018-May-15 20:00N 25°47' W 080°11'0 0.0
2018-May-15 19:30N 25°47' W 080°11'0 0.0
2018-May-15 19:01N 25°47' W 080°11'0 0.0
2018-May-15 18:30N 25°47' W 080°11'0 0.0
2018-May-15 18:01N 25°47' W 080°11'0 0.0
2018-May-15 17:31N 25°47' W 080°11'0 0.0
2018-May-15 17:01N 25°47' W 080°11'0 0.0
2018-May-15 16:31N 25°47' W 080°11'0 0.0
2018-May-15 16:00N 25°47' W 080°11'0 0.0
2018-May-15 15:30N 25°47' W 080°11'0 0.0
2018-May-15 15:00N 25°47' W 080°11'0 0.0
2018-May-15 14:30N 25°47' W 080°11'0 0.0
2018-May-15 14:00N 25°47' W 080°11'0 0.0
2018-May-15 13:31N 25°47' W 080°11'0 0.0
2018-May-15 13:01N 25°47' W 080°11'0 0.0
2018-May-15 12:30N 25°47' W 080°11'0 0.0
2018-May-15 12:00N 25°47' W 080°11'2 4.6
2018-May-15 11:30N 25°46' W 080°08'1 1.4
2018-May-15 10:59N 25°46' W 080°09'1 2.3
2018-May-15 10:29N 25°47' W 080°10'1 1.1
2018-May-15 10:00N 25°47' W 080°11'0 0.0
2018-May-15 09:30N 25°47' W 080°11'0 0.0
2018-May-15 09:01N 25°47' W 080°11'0 0.0
2018-May-15 08:30N 25°47' W 080°11'0 0.0
2018-May-15 08:00N 25°47' W 080°11'0 0.0
2018-May-15 07:31N 25°47' W 080°11'0 0.0
2018-May-15 07:00N 25°47' W 080°11'0 0.0
2018-May-15 06:30N 25°47' W 080°11'0 0.0
2018-May-15 06:00N 25°47' W 080°11'0 0.0
2018-May-15 05:30N 25°47' W 080°11'0 0.0
2018-May-15 05:00N 25°47' W 080°11'0 0.0
2018-May-15 04:30N 25°47' W 080°11'0 0.0
2018-May-15 04:01N 25°47' W 080°11'0 0.0
2018-May-15 03:31N 25°47' W 080°11'0 0.0
2018-May-15 03:00N 25°47' W 080°11'0 0.0
2018-May-15 02:31N 25°47' W 080°11'0 0.0
2018-May-15 02:01N 25°47' W 080°11'0 0.0
2018-May-15 01:31N 25°47' W 080°11'0 0.0
2018-May-15 01:00N 25°47' W 080°11'0 0.0
2018-May-15 00:31N 25°47' W 080°11'0 0.0
2018-May-15 00:00N 25°47' W 080°11'0 0.0
2018-May-14 23:30N 25°47' W 080°11'0 0.0
2018-May-14 23:01N 25°47' W 080°11'0 0.0
2018-May-14 22:31N 25°47' W 080°11'0 0.0
2018-May-14 22:00N 25°47' W 080°11'0 0.0
2018-May-14 21:31N 25°47' W 080°11'0 0.0
2018-May-14 21:00N 25°47' W 080°11'  
Track history (hours):
 
Tides and Currents Weather Stations Pressure Air Temp Water Temp Dewpoint Dewpoint Depression Visibility Wind Speed Wind Dir Waves Ship Positions

George T. Moran

Owner: Moran Towing Corporation, New Canaan, CT. More information available from US FCC via Universal Licensing System and Coast Guard Vessel Documentation Center.

Last reported at 2018-May-24 21:31 UTC. Time now 2018-May-24 21:28 UTC.
Position N 25°47' W 080°11'.

Length 28 m; draft 5 m.

Type: Tug. MMSI: 367627450.

Date/timePositionNaut miles runAvg speedWind from/ knotsBaromVisibWave heightAir tempDewpointWater temp
2018-May-24 21:31N 25°47' W 080°11'0 0.0
2018-May-24 21:00N 25°47' W 080°11'0 0.0
2018-May-24 20:31N 25°47' W 080°11'0 0.0
2018-May-24 20:01N 25°47' W 080°11'0 0.0
2018-May-24 19:30N 25°47' W 080°11'0 0.0
2018-May-24 19:00N 25°47' W 080°11'0 0.0
2018-May-24 18:31N 25°47' W 080°11'1 2.5
2018-May-24 18:00N 25°46' W 080°10'1 1.6
2018-May-24 17:31N 25°46' W 080°09'0 0.0
2018-May-24 17:01N 25°46' W 080°09'0 0.0
2018-May-24 16:30N 25°46' W 080°09'1 1.2
2018-May-24 16:01N 25°46' W 080°09'0 0.6
2018-May-24 15:30N 25°46' W 080°10'0 0.1
2018-May-24 15:01N 25°46' W 080°10'2 4.6
2018-May-24 14:31N 25°46' W 080°07'0 0.5
2018-May-24 14:01N 25°45' W 080°07'2 3.5
2018-May-24 13:30N 25°46' W 080°09'1 0.2
2018-May-24 09:00N 25°46' W 080°10'0 0.0
2018-May-24 08:30N 25°46' W 080°10'0 0.0
2018-May-24 08:00N 25°46' W 080°10'0 0.0
2018-May-24 07:30N 25°46' W 080°10'0 0.0
2018-May-24 07:00N 25°46' W 080°10'0 0.0
2018-May-24 06:31N 25°46' W 080°10'0 0.0
2018-May-24 06:01N 25°46' W 080°10'0 0.0
2018-May-24 05:31N 25°46' W 080°10'0 0.0
2018-May-24 05:01N 25°46' W 080°10'0 0.0
2018-May-24 04:31N 25°46' W 080°10'1 1.5
2018-May-24 04:00N 25°46' W 080°09'0 0.7
2018-May-24 03:31N 25°46' W 080°09'0 0.1
2018-May-24 03:00N 25°46' W 080°09'0 0.3
2018-May-24 02:30N 25°46' W 080°09'1 2.0
2018-May-24 02:00N 25°46' W 080°10'0 0.0
2018-May-24 01:30N 25°46' W 080°10'0 0.0
2018-May-24 01:00N 25°46' W 080°10'0 0.0
2018-May-24 00:30N 25°46' W 080°10'0 0.0
2018-May-24 00:00N 25°46' W 080°10'0 0.0
2018-May-23 23:30N 25°46' W 080°10'0 0.0
2018-May-23 23:01N 25°46' W 080°10'0 0.0
2018-May-23 22:30N 25°46' W 080°10'1 1.6
2018-May-23 22:01N 25°46' W 080°09'0 0.2
2018-May-23 21:30N 25°46' W 080°09'2 4.0
2018-May-23 21:01N 25°45' W 080°07'1 2.6
2018-May-23 20:30N 25°46' W 080°08'0 0.8
2018-May-23 20:00N 25°46' W 080°09'0 0.9
2018-May-23 19:31N 25°46' W 080°09'0 0.1
2018-May-23 19:00N 25°46' W 080°09'0 0.6
2018-May-23 18:30N 25°46' W 080°10'0 0.0
2018-May-23 18:01N 25°46' W 080°10'0 0.0
2018-May-23 17:30N 25°46' W 080°10'0 0.0
2018-May-23 17:00N 25°46' W 080°10'0 0.0
2018-May-23 16:31N 25°46' W 080°10'0 0.0
2018-May-23 16:00N 25°46' W 080°10'1 1.1
2018-May-23 15:31N 25°46' W 080°10'0 0.9
2018-May-23 15:01N 25°46' W 080°10'1 1.2
2018-May-23 14:30N 25°46' W 080°09'0 0.0
2018-May-23 14:01N 25°46' W 080°09'0 0.0
2018-May-23 13:30N 25°46' W 080°09'1 1.7
2018-May-23 13:00N 25°46' W 080°10'1 2.2
2018-May-23 12:30N 25°46' W 080°09'0 0.5
2018-May-23 12:00N 25°46' W 080°09'2 4.0
2018-May-23 11:30N 25°45' W 080°07'1 1.3
2018-May-23 11:00N 25°46' W 080°06'3 3.6
2018-May-23 10:18N 25°46' W 080°09'0 1.3
2018-May-23 09:59N 25°46' W 080°09'3 5.7
2018-May-23 09:31N 25°46' W 080°06'1 2.4
2018-May-23 08:59N 25°45' W 080°07'3 5.8
2018-May-23 08:30N 25°46' W 080°10'0 0.2
2018-May-23 08:00N 25°46' W 080°10'0 0.0
2018-May-23 07:31N 25°46' W 080°10'0 0.0
2018-May-23 07:01N 25°46' W 080°10'0 0.0
2018-May-23 06:30N 25°46' W 080°10'0 0.0
2018-May-23 06:01N 25°46' W 080°10'0 0.0
2018-May-23 05:30N 25°46' W 080°10'0 0.0
2018-May-23 05:01N 25°46' W 080°10'0 0.0
2018-May-23 04:31N 25°46' W 080°10'0 0.0
2018-May-23 04:00N 25°46' W 080°10'0 0.0
2018-May-23 03:30N 25°46' W 080°10'0 0.0
2018-May-23 03:00N 25°46' W 080°10'0 0.0
2018-May-23 02:30N 25°46' W 080°10'0 0.0
2018-May-23 02:00N 25°46' W 080°10'0 0.0
2018-May-23 01:30N 25°46' W 080°10'0 0.0
2018-May-23 01:01N 25°46' W 080°10'0 0.5
2018-May-23 00:31N 25°46' W 080°10'1 1.4
2018-May-23 00:01N 25°46' W 080°09'0 0.9
2018-May-22 23:30N 25°46' W 080°09'1 3.0
2018-May-22 23:01N 25°47' W 080°11'0 0.0
2018-May-22 22:29N 25°47' W 080°11'0 0.0
2018-May-22 22:01N 25°47' W 080°11'0 0.0
2018-May-22 21:30N 25°47' W 080°11'0 0.0
2018-May-22 21:01N 25°47' W 080°11'0 0.0
2018-May-22 20:30N 25°47' W 080°11'0 0.0
2018-May-22 20:01N 25°47' W 080°11'0 0.0
2018-May-22 19:30N 25°47' W 080°11'0 0.0
2018-May-22 19:01N 25°47' W 080°11'0 0.0
2018-May-22 18:30N 25°47' W 080°11'0 0.0
2018-May-22 18:01N 25°47' W 080°11'0 0.0
2018-May-22 17:30N 25°47' W 080°11'0 0.0
2018-May-22 17:00N 25°47' W 080°11'0 0.0
2018-May-22 16:31N 25°47' W 080°11'0 0.0
2018-May-22 16:00N 25°47' W 080°11'0 0.0
2018-May-22 15:30N 25°47' W 080°11'0 0.0
2018-May-22 15:01N 25°47' W 080°11'0 0.0
2018-May-22 14:30N 25°47' W 080°11'0 0.0
2018-May-22 14:01N 25°47' W 080°11'1 2.2
2018-May-22 13:30N 25°46' W 080°10'0 0.1
2018-May-22 13:01N 25°46' W 080°10'3 5.3
2018-May-22 12:30N 25°45' W 080°07'1 1.9
2018-May-22 12:00N 25°46' W 080°08'1 1.0
2018-May-22 11:17N 25°46' W 080°09'0 0.0
2018-May-22 11:00N 25°46' W 080°09'0 0.7
2018-May-22 10:30N 25°46' W 080°09'0 0.5
2018-May-22 10:01N 25°46' W 080°09'1 2.3
2018-May-22 09:30N 25°46' W 080°08'0 0.9
2018-May-22 09:00N 25°45' W 080°07'3 5.6
2018-May-22 08:30N 25°47' W 080°10'1 1.5
2018-May-22 08:00N 25°47' W 080°11'0 0.0
2018-May-22 07:30N 25°47' W 080°11'0 0.0
2018-May-22 07:00N 25°47' W 080°11'0 0.0
2018-May-22 06:30N 25°47' W 080°11'0 0.0
2018-May-22 05:59N 25°47' W 080°11'0 0.0
2018-May-22 05:31N 25°47' W 080°11'0 0.0
2018-May-22 05:01N 25°47' W 080°11'0 0.0
2018-May-22 04:28N 25°47' W 080°11'0 0.0
2018-May-22 04:00N 25°47' W 080°11'0 0.0
2018-May-22 03:31N 25°47' W 080°11'0 0.0
2018-May-22 03:00N 25°47' W 080°11'0 0.0
2018-May-22 02:30N 25°47' W 080°11'0 0.0
2018-May-22 02:00N 25°47' W 080°11'0 0.0
2018-May-22 01:31N 25°47' W 080°11'0 0.0
2018-May-22 01:00N 25°47' W 080°11'0 0.0
2018-May-22 00:30N 25°47' W 080°11'0 0.0
2018-May-22 00:01N 25°47' W 080°11'0 0.0
2018-May-21 23:31N 25°47' W 080°11'0 0.0
2018-May-21 23:00N 25°47' W 080°11'0 0.0
2018-May-21 22:30N 25°47' W 080°11'0 0.0
2018-May-21 22:00N 25°47' W 080°11'0 0.0
2018-May-21 21:31N 25°47' W 080°11'0 0.0
2018-May-21 21:00N 25°47' W 080°11'0 0.0
2018-May-21 20:31N 25°47' W 080°11'0 0.0
2018-May-21 20:00N 25°47' W 080°11'0 0.0
2018-May-21 19:30N 25°47' W 080°11'0 0.0
2018-May-21 19:01N 25°47' W 080°11'0 0.0
2018-May-21 18:30N 25°47' W 080°11'0 0.0
2018-May-21 18:00N 25°47' W 080°11'0 0.0
2018-May-21 17:31N 25°47' W 080°11'0 0.0
2018-May-21 17:00N 25°47' W 080°11'0 0.0
2018-May-21 16:30N 25°47' W 080°11'0 0.0
2018-May-21 16:00N 25°47' W 080°11'0 0.0
2018-May-21 15:30N 25°47' W 080°11'0 0.0
2018-May-21 15:01N 25°47' W 080°11'0 0.0
2018-May-21 14:31N 25°47' W 080°11'0 0.0
2018-May-21 14:01N 25°47' W 080°11'0 0.0
2018-May-21 13:30N 25°47' W 080°11'0 0.0
2018-May-21 13:00N 25°47' W 080°11'0 0.0
2018-May-21 12:30N 25°47' W 080°11'0 0.0
2018-May-21 11:59N 25°47' W 080°11'0 0.0
2018-May-21 11:30N 25°47' W 080°11'0 0.0
2018-May-21 11:00N 25°47' W 080°11'0 0.0
2018-May-21 10:31N 25°47' W 080°11'0 0.0
2018-May-21 10:00N 25°47' W 080°11'0 0.0
2018-May-21 09:30N 25°47' W 080°11'0 0.0
2018-May-21 09:01N 25°47' W 080°11'0 0.0
2018-May-21 08:30N 25°47' W 080°11'0 0.0
2018-May-21 08:01N 25°47' W 080°11'0 0.0
2018-May-21 07:30N 25°47' W 080°11'0 0.0
2018-May-21 07:00N 25°47' W 080°11'0 0.0
2018-May-21 06:31N 25°47' W 080°11'0 0.0
2018-May-21 06:01N 25°47' W 080°11'0 0.0
2018-May-21 05:30N 25°47' W 080°11'0 0.0
2018-May-21 05:01N 25°47' W 080°11'0 0.0
2018-May-21 04:30N 25°47' W 080°11'0 0.0
2018-May-21 04:01N 25°47' W 080°11'0 0.0
2018-May-21 03:30N 25°47' W 080°11'0 0.0
2018-May-21 03:00N 25°47' W 080°11'0 0.0
2018-May-21 02:31N 25°47' W 080°11'0 0.0
2018-May-21 02:01N 25°47' W 080°11'0 0.0
2018-May-21 01:31N 25°47' W 080°11'0 0.0
2018-May-21 01:01N 25°47' W 080°11'0 0.0
2018-May-21 00:31N 25°47' W 080°11'0 0.0
2018-May-21 00:00N 25°47' W 080°11'0 0.0
2018-May-20 23:31N 25°47' W 080°11'0 0.0
2018-May-20 23:00N 25°47' W 080°11'0 0.0
2018-May-20 22:30N 25°47' W 080°11'0 0.0
2018-May-20 22:00N 25°47' W 080°11'0 0.0
2018-May-20 21:31N 25°47' W 080°11'0 0.0
2018-May-20 21:00N 25°47' W 080°11'0 0.0
2018-May-20 20:30N 25°47' W 080°11'0 0.0
2018-May-20 20:01N 25°47' W 080°11'0 0.0
2018-May-20 19:31N 25°47' W 080°11'0 0.0
2018-May-20 19:00N 25°47' W 080°11'0 0.0
2018-May-20 18:30N 25°47' W 080°11'0 0.0
2018-May-20 18:01N 25°47' W 080°11'0 0.0
2018-May-20 17:31N 25°47' W 080°11'0 0.0
2018-May-20 17:00N 25°47' W 080°11'0 0.0
2018-May-20 16:30N 25°47' W 080°11'0 0.0
2018-May-20 16:00N 25°47' W 080°11'0 0.0
2018-May-20 15:30N 25°47' W 080°11'0 0.0
2018-May-20 15:01N 25°47' W 080°11'0 0.0
2018-May-20 14:30N 25°47' W 080°11'0 0.0
2018-May-20 14:01N 25°47' W 080°11'0 0.0
2018-May-20 13:31N 25°47' W 080°11'0 0.0
2018-May-20 13:00N 25°47' W 080°11'2 4.9
2018-May-20 12:31N 25°46' W 080°08'1 1.1
2018-May-20 12:00N 25°46' W 080°09'0 0.0
2018-May-20 11:29N 25°46' W 080°09'1 2.0
2018-May-20 11:01N 25°47' W 080°10'1 2.0
2018-May-20 10:30N 25°47' W 080°11'0 0.0
2018-May-20 10:00N 25°47' W 080°11'0 0.0
2018-May-20 09:31N 25°47' W 080°11'0 0.0
2018-May-20 09:01N 25°47' W 080°11'0 0.0
2018-May-20 08:30N 25°47' W 080°11'0 0.0
2018-May-20 08:00N 25°47' W 080°11'0 0.0
2018-May-20 07:31N 25°47' W 080°11'0 0.0
2018-May-20 07:01N 25°47' W 080°11'0 0.0
2018-May-20 06:30N 25°47' W 080°11'0 0.0
2018-May-20 06:00N 25°47' W 080°11'0 0.0
2018-May-20 05:31N 25°47' W 080°11'0 0.0
2018-May-20 05:01N 25°47' W 080°11'0 0.0
2018-May-20 04:30N 25°47' W 080°11'0 0.0
2018-May-20 04:01N 25°47' W 080°11'0 0.0
2018-May-20 03:31N 25°47' W 080°11'0 0.0
2018-May-20 03:01N 25°47' W 080°11'0 0.0
2018-May-20 02:30N 25°47' W 080°11'0 0.0
2018-May-20 02:00N 25°47' W 080°11'0 0.0
2018-May-20 01:30N 25°47' W 080°11'0 0.0
2018-May-20 01:00N 25°47' W 080°11'0 0.0
2018-May-20 00:30N 25°47' W 080°11'0 0.0
2018-May-20 00:00N 25°47' W 080°11'0 0.0
2018-May-19 23:30N 25°47' W 080°11'0 0.0
2018-May-19 23:00N 25°47' W 080°11'0 0.0
2018-May-19 22:30N 25°47' W 080°11'0 0.0
2018-May-19 22:00N 25°47' W 080°11'0 0.0
2018-May-19 21:30N 25°47' W 080°11'0 0.0
2018-May-19 21:00N 25°47' W 080°11'0 0.0
2018-May-19 20:31N 25°47' W 080°11'0 0.0
2018-May-19 20:01N 25°47' W 080°11'0 0.0
2018-May-19 19:30N 25°47' W 080°11'0 0.0
2018-May-19 19:01N 25°47' W 080°11'0 0.0
2018-May-19 18:31N 25°47' W 080°11'0 0.0
2018-May-19 18:01N 25°47' W 080°11'0 0.0
2018-May-19 17:31N 25°47' W 080°11'0 0.0
2018-May-19 17:01N 25°47' W 080°11'0 0.0
2018-May-19 16:31N 25°47' W 080°11'0 0.0
2018-May-19 16:00N 25°47' W 080°11'0 0.0
2018-May-19 15:31N 25°47' W 080°11'0 0.0
2018-May-19 15:01N 25°47' W 080°11'0 0.0
2018-May-19 14:31N 25°47' W 080°11'1 1.5
2018-May-19 14:00N 25°47' W 080°10'1 2.3
2018-May-19 13:30N 25°46' W 080°09'0 0.0
2018-May-19 13:00N 25°46' W 080°09'0 0.0
2018-May-19 12:30N 25°46' W 080°09'0 1.0
2018-May-19 12:00N 25°46' W 080°10'0 0.5
2018-May-19 11:31N 25°46' W 080°10'0 0.5
2018-May-19 11:00N 25°46' W 080°10'1 1.8
2018-May-19 10:31N 25°46' W 080°09'0 0.8
2018-May-19 10:01N 25°46' W 080°09'1 1.9
2018-May-19 09:31N 25°46' W 080°10'0 0.0
2018-May-19 09:00N 25°46' W 080°10'0 0.0
2018-May-19 08:30N 25°46' W 080°10'0 0.0
2018-May-19 08:01N 25°46' W 080°10'0 0.0
2018-May-19 07:31N 25°46' W 080°10'0 0.0
2018-May-19 07:01N 25°46' W 080°10'0 0.0
2018-May-19 06:30N 25°46' W 080°10'0 0.0
2018-May-19 06:00N 25°46' W 080°10'0 0.0
2018-May-19 05:30N 25°46' W 080°10'0 0.0
2018-May-19 05:01N 25°46' W 080°10'0 0.0
2018-May-19 04:30N 25°46' W 080°10'0 0.0
2018-May-19 04:01N 25°46' W 080°10'0 0.0
2018-May-19 03:31N 25°46' W 080°10'0 0.0
2018-May-19 03:01N 25°46' W 080°10'0 0.0
2018-May-19 02:31N 25°46' W 080°10'0 0.0
2018-May-19 02:00N 25°46' W 080°10'0 0.0
2018-May-19 01:31N 25°46' W 080°10'0 0.0
2018-May-19 01:00N 25°46' W 080°10'0 0.0
2018-May-19 00:31N 25°46' W 080°10'1 1.6
2018-May-19 00:01N 25°46' W 080°09'0 0.6
2018-May-18 23:30N 25°46' W 080°09'2 3.0
2018-May-18 23:01N 25°46' W 080°07'1 2.6
2018-May-18 22:30N 25°46' W 080°09'0 0.4
2018-May-18 22:00N 25°46' W 080°09'0 0.0
2018-May-18 21:30N 25°46' W 080°09'0 0.0
2018-May-18 21:00N 25°46' W 080°09'0 0.5
2018-May-18 20:30N 25°46' W 080°09'0 0.0
2018-May-18 20:00N 25°46' W 080°09'2 4.6
2018-May-18 19:30N 25°47' W 080°11'0 0.0
2018-May-18 19:01N 25°47' W 080°11'0 0.0
2018-May-18 18:30N 25°47' W 080°11'0 0.0
2018-May-18 18:00N 25°47' W 080°11'0 0.0
2018-May-18 17:31N 25°47' W 080°11'0 0.0
2018-May-18 17:00N 25°47' W 080°11'0 0.0
2018-May-18 16:31N 25°47' W 080°11'0 0.0
2018-May-18 16:01N 25°47' W 080°11'0 0.0
2018-May-18 15:31N 25°47' W 080°11'0 0.0
2018-May-18 15:01N 25°47' W 080°11'0 0.0
2018-May-18 14:30N 25°47' W 080°11'0 0.0
2018-May-18 14:01N 25°47' W 080°11'0 0.0
2018-May-18 13:31N 25°47' W 080°11'0 0.0
2018-May-18 13:01N 25°47' W 080°11'0 0.0
2018-May-18 12:31N 25°47' W 080°11'0 0.0
2018-May-18 12:01N 25°47' W 080°11'0 0.0
2018-May-18 11:31N 25°47' W 080°11'0 0.0
2018-May-18 11:00N 25°47' W 080°11'0 0.0
2018-May-18 10:31N 25°47' W 080°11'1 1.5
2018-May-18 10:00N 25°47' W 080°10'1 1.9
2018-May-18 09:30N 25°46' W 080°09'1 1.1
2018-May-18 09:00N 25°46' W 080°09'2 3.7
2018-May-18 08:30N 25°45' W 080°07'1 1.2
2018-May-18 08:00N 25°46' W 080°07'1 2.5
2018-May-18 07:30N 25°46' W 080°09'0 0.0
2018-May-18 07:01N 25°46' W 080°09'0 0.0
2018-May-18 06:30N 25°46' W 080°09'1 2.3
2018-May-18 06:00N 25°46' W 080°10'0 0.8
2018-May-18 05:31N 25°46' W 080°10'0 0.1
2018-May-18 05:00N 25°46' W 080°10'1 2.7
2018-May-18 04:30N 25°47' W 080°11'0 0.3
2018-May-18 04:00N 25°47' W 080°11'0 0.0
2018-May-18 03:29N 25°47' W 080°11'0 0.0
2018-May-18 03:00N 25°47' W 080°11'0 0.0
2018-May-18 02:30N 25°47' W 080°11'0 0.0
2018-May-18 02:01N 25°47' W 080°11'0 0.0
2018-May-18 01:30N 25°47' W 080°11'0 0.0
2018-May-18 01:00N 25°47' W 080°11'0 0.0
2018-May-18 00:30N 25°47' W 080°11'0 0.0
2018-May-18 00:01N 25°47' W 080°11'0 0.0
2018-May-17 23:31N 25°47' W 080°11'0 0.0
2018-May-17 23:00N 25°47' W 080°11'0 0.0
2018-May-17 22:30N 25°47' W 080°11'0 0.0
2018-May-17 22:00N 25°47' W 080°11'0 0.0
2018-May-17 21:31N 25°47' W 080°11'0 0.0
2018-May-17 21:01N 25°47' W 080°11'0 0.0
2018-May-17 20:31N 25°47' W 080°11'0 0.0
2018-May-17 20:01N 25°47' W 080°11'0 0.0
2018-May-17 19:30N 25°47' W 080°11'0 0.0
2018-May-17 19:00N 25°47' W 080°11'0 0.0
2018-May-17 18:31N 25°47' W 080°11'0 0.0
2018-May-17 18:00N 25°47' W 080°11'1 3.0
2018-May-17 17:31N 25°46' W 080°09'0 0.0
2018-May-17 17:01N 25°46' W 080°09'2 3.2
2018-May-17 16:30N 25°46' W 080°08'1 1.6
2018-May-17 16:00N 25°45' W 080°07'2 3.5
2018-May-17 15:30N 25°46' W 080°09'0 0.0
2018-May-17 14:59N 25°46' W 080°09'0 0.0
2018-May-17 14:30N 25°46' W 080°09'0 0.0
2018-May-17 14:00N 25°46' W 080°09'0 0.0
2018-May-17 13:30N 25°46' W 080°09'0 0.0
2018-May-17 13:00N 25°46' W 080°09'1 3.0
2018-May-17 12:31N 25°45' W 080°07'2 3.5
2018-May-17 12:00N 25°46' W 080°09'0 0.2
2018-May-17 11:30N 25°46' W 080°09'0 0.7
2018-May-17 11:01N 25°46' W 080°10'0 0.1
2018-May-17 10:31N 25°46' W 080°10'1 2.9
2018-May-17 10:01N 25°47' W 080°11'0 0.0
2018-May-17 09:30N 25°47' W 080°11'0 0.0
2018-May-17 09:00N 25°47' W 080°11'0 0.0
2018-May-17 08:30N 25°47' W 080°11'0 0.0
2018-May-17 08:00N 25°47' W 080°11'0 0.0
2018-May-17 07:31N 25°47' W 080°11'0 0.0
2018-May-17 07:00N 25°47' W 080°11'0 0.0
2018-May-17 06:30N 25°47' W 080°11'0 0.0
2018-May-17 06:01N 25°47' W 080°11'0 0.0
2018-May-17 05:31N 25°47' W 080°11'0 0.0
2018-May-17 05:00N 25°47' W 080°11'0 0.0
2018-May-17 04:31N 25°47' W 080°11'0 0.0
2018-May-17 04:00N 25°47' W 080°11'0 0.0
2018-May-17 03:30N 25°47' W 080°11'0 0.0
2018-May-17 03:01N 25°47' W 080°11'0 0.0
2018-May-17 02:30N 25°47' W 080°11'0 0.0
2018-May-17 02:00N 25°47' W 080°11'0 0.0
2018-May-17 01:30N 25°47' W 080°11'0 0.0
2018-May-17 01:00N 25°47' W 080°11'0 0.0
2018-May-17 00:31N 25°47' W 080°11'0 0.0
2018-May-17 00:00N 25°47' W 080°11'0 0.0
2018-May-16 23:30N 25°47' W 080°11'0 0.0
2018-May-16 23:00N 25°47' W 080°11'0 0.0
2018-May-16 22:31N 25°47' W 080°11'0 0.0
2018-May-16 22:01N 25°47' W 080°11'2 4.1
2018-May-16 21:30N 25°46' W 080°09'0 0.3
2018-May-16 21:01N 25°46' W 080°09'1 2.2
2018-May-16 20:31N 25°46' W 080°08'1 1.8
2018-May-16 20:01N 25°45' W 080°07'2 4.2
2018-May-16 19:31N 25°46' W 080°09'0 0.0
2018-May-16 19:01N 25°46' W 080°09'0 0.0
2018-May-16 18:31N 25°46' W 080°09'0 0.0
2018-May-16 18:01N 25°46' W 080°09'0 0.0
2018-May-16 17:31N 25°46' W 080°09'0 0.0
2018-May-16 17:00N 25°46' W 080°09'0 0.5
2018-May-16 16:31N 25°46' W 080°09'0 0.5
2018-May-16 16:00N 25°46' W 080°10'0 0.1
2018-May-16 15:31N 25°46' W 080°10'2 4.8
2018-May-16 15:01N 25°45' W 080°07'0 0.4
2018-May-16 14:31N 25°45' W 080°07'1 1.5
2018-May-16 14:00N 25°46' W 080°08'1 2.1
2018-May-16 13:28N 25°46' W 080°09'1 2.9
2018-May-16 13:01N 25°46' W 080°10'0 1.0
2018-May-16 12:31N 25°46' W 080°10'1 1.8
2018-May-16 12:00N 25°46' W 080°09'1 2.9
2018-May-16 11:31N 25°47' W 080°10'1 1.2
2018-May-16 11:00N 25°47' W 080°11'0 0.0
2018-May-16 10:30N 25°47' W 080°11'0 0.0
2018-May-16 10:00N 25°47' W 080°11'0 0.0
2018-May-16 09:30N 25°47' W 080°11'0 0.0
2018-May-16 09:00N 25°47' W 080°11'0 0.0
2018-May-16 08:31N 25°47' W 080°11'0 0.0
2018-May-16 08:00N 25°47' W 080°11'0 0.0
2018-May-16 07:31N 25°47' W 080°11'0 0.0
2018-May-16 07:01N 25°47' W 080°11'0 0.0
2018-May-16 06:30N 25°47' W 080°11'0 0.0
2018-May-16 06:01N 25°47' W 080°11'0 0.0
2018-May-16 05:31N 25°47' W 080°11'0 0.0
2018-May-16 05:00N 25°47' W 080°11'0 0.0
2018-May-16 04:31N 25°47' W 080°11'0 0.0
2018-May-16 04:00N 25°47' W 080°11'0 0.0
2018-May-16 03:31N 25°47' W 080°11'0 0.0
2018-May-16 03:01N 25°47' W 080°11'0 0.0
2018-May-16 02:30N 25°47' W 080°11'0 0.0
2018-May-16 02:01N 25°47' W 080°11'0 0.0
2018-May-16 01:31N 25°47' W 080°11'0 0.0
2018-May-16 01:01N 25°47' W 080°11'0 0.0
2018-May-16 00:30N 25°47' W 080°11'0 0.0
2018-May-16 00:01N 25°47' W 080°11'0 0.0
2018-May-15 23:30N 25°47' W 080°11'0 0.0
2018-May-15 23:00N 25°47' W 080°11'0 0.0
2018-May-15 22:30N 25°47' W 080°11'0 0.0
2018-May-15 22:00N 25°47' W 080°11'0 0.0
2018-May-15 21:30N 25°47' W 080°11'0 0.0
2018-May-15 21:00N 25°47' W 080°11'0 0.0
2018-May-15 20:30N 25°47' W 080°11'0 0.0
2018-May-15 20:00N 25°47' W 080°11'0 0.0
2018-May-15 19:30N 25°47' W 080°11'0 0.0
2018-May-15 19:01N 25°47' W 080°11'0 0.0
2018-May-15 18:30N 25°47' W 080°11'0 0.0
2018-May-15 18:01N 25°47' W 080°11'0 0.0
2018-May-15 17:31N 25°47' W 080°11'0 0.0
2018-May-15 17:01N 25°47' W 080°11'0 0.0
2018-May-15 16:31N 25°47' W 080°11'0 0.0
2018-May-15 16:00N 25°47' W 080°11'0 0.0
2018-May-15 15:30N 25°47' W 080°11'0 0.0
2018-May-15 15:00N 25°47' W 080°11'0 0.0
2018-May-15 14:30N 25°47' W 080°11'0 0.0
2018-May-15 14:00N 25°47' W 080°11'0 0.0
2018-May-15 13:31N 25°47' W 080°11'0 0.0
2018-May-15 13:01N 25°47' W 080°11'0 0.0
2018-May-15 12:30N 25°47' W 080°11'0 0.0
2018-May-15 12:00N 25°47' W 080°11'2 4.6
2018-May-15 11:30N 25°46' W 080°08'1 1.4
2018-May-15 10:59N 25°46' W 080°09'1 2.3
2018-May-15 10:29N 25°47' W 080°10'1 1.1
2018-May-15 10:00N 25°47' W 080°11'0 0.0
2018-May-15 09:30N 25°47' W 080°11'0 0.0
2018-May-15 09:01N 25°47' W 080°11'0 0.0
2018-May-15 08:30N 25°47' W 080°11'0 0.0
2018-May-15 08:00N 25°47' W 080°11'0 0.0
2018-May-15 07:31N 25°47' W 080°11'0 0.0
2018-May-15 07:00N 25°47' W 080°11'0 0.0
2018-May-15 06:30N 25°47' W 080°11'0 0.0
2018-May-15 06:00N 25°47' W 080°11'0 0.0
2018-May-15 05:30N 25°47' W 080°11'0 0.0
2018-May-15 05:00N 25°47' W 080°11'0 0.0
2018-May-15 04:30N 25°47' W 080°11'0 0.0
2018-May-15 04:01N 25°47' W 080°11'0 0.0
2018-May-15 03:31N 25°47' W 080°11'0 0.0
2018-May-15 03:00N 25°47' W 080°11'0 0.0
2018-May-15 02:31N 25°47' W 080°11'0 0.0
2018-May-15 02:01N 25°47' W 080°11'0 0.0
2018-May-15 01:31N 25°47' W 080°11'0 0.0
2018-May-15 01:00N 25°47' W 080°11'0 0.0
2018-May-15 00:31N 25°47' W 080°11'0 0.0
2018-May-15 00:00N 25°47' W 080°11'0 0.0
2018-May-14 23:30N 25°47' W 080°11'0 0.0
2018-May-14 23:01N 25°47' W 080°11'0 0.0
2018-May-14 22:31N 25°47' W 080°11'0 0.0
2018-May-14 22:00N 25°47' W 080°11'0 0.0
2018-May-14 21:31N 25°47' W 080°11'0 0.0
2018-May-14 21:00N 25°47' W 080°11'  

Dump ship's entire track history